Terminal Aerodrome Forecast
Issued by NWS North Platte, NE

Home | Current Version | Previous Version | Graphics & Text | Print | Product List | Glossary On
Versions: 1 2 3 4 5 6 7 8 9 10 11 12 13 14 15
000
FTUS43 KLBF 140500
TAFVTN
TAF
KVTN 140522Z 1406/1506 VRB05KT P6SM SKC
     FM141600 11007KT P6SM SCT060 SCT100
     FM142100 13008KT P6SM BKN060=

USA.gov is the U.S. government's official web portal to all federal, state and local government web resources and services.